This is the latest recevied weather packets stored in our database for station/object WW1TA. If no packets are shown the sender has not sent any weather packets the latest 10 day(s).
| Time | Temp. | Humidity | Pressure | Rain* | Wind** | Luminosity | Snow |
|---|---|---|---|---|---|---|---|
| 1777957507 | 14.44° C | 93% | 1019.4 hPa | 0 mm | - | 0 W/m² | - |
| 1777957204 | 14.44° C | 92% | 1019.5 hPa | 0 mm | - | 0 W/m² | - |
| 1777956900 | 14.44° C | 92% | 1019.4 hPa | 0 mm | - | 0 W/m² | - |
| 1777956597 | 14.44° C | 92% | 1019.6 hPa | 0 mm | - | 0 W/m² | - |
| 1777956294 | 14.44° C | 92% | 1019.6 hPa | 0 mm | - | 0 W/m² | - |
| 1777955990 | 14.44° C | 92% | 1019.5 hPa | 0 mm | - | 0 W/m² | - |
| 1777955687 | 14.44° C | 91% | 1019.5 hPa | 0 mm | - | 0 W/m² | - |
| 1777955384 | 14.44° C | 91% | 1019.7 hPa | 0 mm | - | 0 W/m² | - |
| 1777955080 | 14.44° C | 90% | 1019.6 hPa | 0 mm | - | 0 W/m² | - |
| 1777954777 | 14.44° C | 90% | 1019.8 hPa | 0 mm | - | 0 W/m² | - |
| 1777954474 | 15° C | 90% | 1019.5 hPa | 0 mm | - | 0 W/m² | - |
| 1777954171 | 15° C | 90% | 1019.7 hPa | 0 mm | - | 0 W/m² | - |
| 1777953869 | 15° C | 89% | 1019.6 hPa | 0 mm | - | 0 W/m² | - |
| 1777953565 | 15° C | 89% | 1019.5 hPa | 0 mm | - | 0 W/m² | - |
| 1777942664 | 18.33° C | 65% | 1019.1 hPa | 0 mm | - | 0 W/m² | - |
| 1777942349 | 18.33° C | 64% | 1019 hPa | 0 mm | - | 0 W/m² | - |
| 1777940833 | 18.89° C | 61% | 1018.9 hPa | 0 mm | - | 0 W/m² | - |
| 1777940531 | 18.89° C | 59% | 1018.8 hPa | 0 mm | - | 0 W/m² | - |
| 1777939623 | 19.44° C | 58% | 1019.1 hPa | 0 mm | - | 0 W/m² | - |
| 1777937499 | 21.11° C | 49% | 1018.9 hPa | 0 mm | - | 20 W/m² | - |
| 1777936894 | 22.22° C | 46% | 1018.8 hPa | 0 mm | - | 32 W/m² | - |
| 1777935380 | 23.89° C | 44% | 1018.9 hPa | 0 mm | - | 65 W/m² | - |
| 1777932954 | 23.89° C | 42% | 1018.9 hPa | 0 mm | - | 252 W/m² | - |
| 1777929920 | 24.44° C | 43% | 1018.8 hPa | 0 mm | - | 283 W/m² | - |
| 1777926895 | 23.33° C | 42% | 1019 hPa | 0 mm | - | 553 W/m² | - |
* Rain latest hour (hover to see other rain measurements)
** Current wind speed in m/s (hover to see current wind gust speed)